sensor_id;sensor_type;location;lat;lon;timestamp;P1;durP1;ratioP1;P2;durP2;ratioP2
65063;SDS011;51654;51.452;6.644;2022-12-07T00:01:40;17.60;;;9.30;;
65063;SDS011;51654;51.452;6.644;2022-12-07T00:04:09;49.73;;;14.13;;
65063;SDS011;51654;51.452;6.644;2022-12-07T00:06:38;58.57;;;17.57;;
65063;SDS011;51654;51.452;6.644;2022-12-07T00:09:06;13.17;;;8.53;;
65063;SDS011;51654;51.452;6.644;2022-12-07T00:11:34;25.00;;;10.70;;
65063;SDS011;51654;51.452;6.644;2022-12-07T00:31:16;16.05;;;9.05;;
65063;SDS011;51654;51.452;6.644;2022-12-07T00:33:45;25.57;;;12.20;;
65063;SDS011;51654;51.452;6.644;2022-12-07T00:36:13;12.43;;;8.47;;
65063;SDS011;51654;51.452;6.644;2022-12-07T00:38:52;16.83;;;8.37;;
65063;SDS011;51654;51.452;6.644;2022-12-07T00:41:20;86.13;;;21.57;;
65063;SDS011;51654;51.452;6.644;2022-12-07T00:43:48;36.73;;;12.00;;
65063;SDS011;51654;51.452;6.644;2022-12-07T00:46:16;19.03;;;10.97;;
65063;SDS011;51654;51.452;6.644;2022-12-07T00:48:43;15.00;;;8.80;;
65063;SDS011;51654;51.452;6.644;2022-12-07T00:51:11;15.83;;;9.07;;
65063;SDS011;51654;51.452;6.644;2022-12-07T00:53:40;12.23;;;8.47;;
65063;SDS011;51654;51.452;6.644;2022-12-07T00:59:03;10.33;;;7.63;;
65063;SDS011;51654;51.452;6.644;2022-12-07T01:01:31;9.07;;;8.17;;
65063;SDS011;51654;51.452;6.644;2022-12-07T01:04:01;12.77;;;8.40;;
65063;SDS011;51654;51.452;6.644;2022-12-07T01:06:29;14.33;;;8.57;;
65063;SDS011;51654;51.452;6.644;2022-12-07T01:08:56;12.37;;;9.43;;
65063;SDS011;51654;51.452;6.644;2022-12-07T01:11:25;25.70;;;10.20;;
65063;SDS011;51654;51.452;6.644;2022-12-07T01:13:54;13.60;;;8.47;;
65063;SDS011;51654;51.452;6.644;2022-12-07T01:16:23;16.53;;;8.67;;
65063;SDS011;51654;51.452;6.644;2022-12-07T01:18:52;16.00;;;8.57;;
65063;SDS011;51654;51.452;6.644;2022-12-07T01:21:21;12.33;;;8.43;;
65063;SDS011;51654;51.452;6.644;2022-12-07T01:23:50;11.50;;;8.57;;
65063;SDS011;51654;51.452;6.644;2022-12-07T01:26:19;21.37;;;9.77;;
65063;SDS011;51654;51.452;6.644;2022-12-07T01:28:48;15.23;;;8.13;;
65063;SDS011;51654;51.452;6.644;2022-12-07T01:31:16;10.10;;;7.97;;
65063;SDS011;51654;51.452;6.644;2022-12-07T01:33:46;14.70;;;9.67;;
65063;SDS011;51654;51.452;6.644;2022-12-07T01:38:44;16.33;;;8.77;;
65063;SDS011;51654;51.452;6.644;2022-12-07T01:41:13;11.63;;;8.37;;
65063;SDS011;51654;51.452;6.644;2022-12-07T01:44:06;11.17;;;7.80;;
65063;SDS011;51654;51.452;6.644;2022-12-07T01:46:33;10.43;;;9.03;;
65063;SDS011;51654;51.452;6.644;2022-12-07T01:49:01;17.73;;;8.50;;
65063;SDS011;51654;51.452;6.644;2022-12-07T01:51:30;13.23;;;7.57;;
65063;SDS011;51654;51.452;6.644;2022-12-07T01:53:57;20.73;;;8.03;;
65063;SDS011;51654;51.452;6.644;2022-12-07T01:56:25;11.20;;;8.13;;
65063;SDS011;51654;51.452;6.644;2022-12-07T01:58:53;18.07;;;9.40;;
65063;SDS011;51654;51.452;6.644;2022-12-07T02:01:23;17.60;;;10.07;;
65063;SDS011;51654;51.452;6.644;2022-12-07T02:03:49;17.43;;;10.03;;
65063;SDS011;51654;51.452;6.644;2022-12-07T02:06:17;16.13;;;8.80;;
65063;SDS011;51654;51.452;6.644;2022-12-07T02:08:48;16.57;;;8.30;;
65063;SDS011;51654;51.452;6.644;2022-12-07T02:11:15;23.90;;;10.40;;
65063;SDS011;51654;51.452;6.644;2022-12-07T02:13:42;18.47;;;8.43;;
65063;SDS011;51654;51.452;6.644;2022-12-07T02:16:24;16.93;;;8.53;;
65063;SDS011;51654;51.452;6.644;2022-12-07T02:19:20;14.93;;;8.53;;
65063;SDS011;51654;51.452;6.644;2022-12-07T02:22:19;16.30;;;8.70;;
65063;SDS011;51654;51.452;6.644;2022-12-07T03:11:06;19.07;;;9.10;;
65063;SDS011;51654;51.452;6.644;2022-12-07T03:16:20;17.67;;;9.27;;
65063;SDS011;51654;51.452;6.644;2022-12-07T04:11:45;10.63;;;7.57;;
65063;SDS011;51654;51.452;6.644;2022-12-07T04:14:12;15.43;;;7.97;;
65063;SDS011;51654;51.452;6.644;2022-12-07T04:16:50;22.25;;;8.48;;
65063;SDS011;51654;51.452;6.644;2022-12-07T04:19:18;11.50;;;7.73;;
65063;SDS011;51654;51.452;6.644;2022-12-07T04:21:46;15.33;;;8.57;;
65063;SDS011;51654;51.452;6.644;2022-12-07T04:24:13;14.23;;;8.73;;
65063;SDS011;51654;51.452;6.644;2022-12-07T08:27:53;16.90;;;5.45;;
65063;SDS011;51654;51.452;6.644;2022-12-07T08:30:21;7.50;;;4.63;;
65063;SDS011;51654;51.452;6.644;2022-12-07T08:32:48;14.27;;;4.97;;
65063;SDS011;51654;51.452;6.644;2022-12-07T08:37:42;10.83;;;4.63;;
65063;SDS011;51654;51.452;6.644;2022-12-07T15:08:40;28.73;;;8.40;;
65063;SDS011;51654;51.452;6.644;2022-12-07T15:11:14;27.33;;;8.17;;
65063;SDS011;51654;51.452;6.644;2022-12-07T15:13:42;7.33;;;4.67;;
65063;SDS011;51654;51.452;6.644;2022-12-07T15:16:28;12.23;;;4.93;;
65063;SDS011;51654;51.452;6.644;2022-12-07T15:19:17;14.20;;;4.20;;
65063;SDS011;51654;51.452;6.644;2022-12-07T15:21:54;9.97;;;3.60;;
65063;SDS011;51654;51.452;6.644;2022-12-07T15:24:21;11.83;;;3.43;;
65063;SDS011;51654;51.452;6.644;2022-12-07T15:26:50;19.33;;;3.80;;
65063;SDS011;51654;51.452;6.644;2022-12-07T15:29:17;9.57;;;3.20;;
65063;SDS011;51654;51.452;6.644;2022-12-07T15:31:49;12.03;;;3.73;;
65063;SDS011;51654;51.452;6.644;2022-12-07T15:34:25;5.57;;;2.90;;
65063;SDS011;51654;51.452;6.644;2022-12-07T15:37:07;10.97;;;4.67;;
65063;SDS011;51654;51.452;6.644;2022-12-07T15:39:35;8.70;;;3.93;;
65063;SDS011;51654;51.452;6.644;2022-12-07T15:42:02;11.73;;;4.10;;
65063;SDS011;51654;51.452;6.644;2022-12-07T15:44:30;7.80;;;4.70;;
65063;SDS011;51654;51.452;6.644;2022-12-07T15:47:15;6.53;;;3.57;;
65063;SDS011;51654;51.452;6.644;2022-12-07T15:49:42;21.90;;;4.77;;
65063;SDS011;51654;51.452;6.644;2022-12-07T15:52:09;9.67;;;3.67;;
65063;SDS011;51654;51.452;6.644;2022-12-07T15:54:36;10.87;;;3.47;;
65063;SDS011;51654;51.452;6.644;2022-12-07T15:57:03;14.47;;;3.93;;
65063;SDS011;51654;51.452;6.644;2022-12-07T15:59:33;7.03;;;3.67;;
65063;SDS011;51654;51.452;6.644;2022-12-07T16:02:00;3.87;;;3.40;;
65063;SDS011;51654;51.452;6.644;2022-12-07T16:04:28;5.80;;;3.50;;
65063;SDS011;51654;51.452;6.644;2022-12-07T16:06:57;16.30;;;3.17;;
65063;SDS011;51654;51.452;6.644;2022-12-07T16:09:24;5.60;;;3.50;;
65063;SDS011;51654;51.452;6.644;2022-12-07T16:11:51;14.87;;;6.73;;
65063;SDS011;51654;51.452;6.644;2022-12-07T16:14:18;11.00;;;4.60;;
65063;SDS011;51654;51.452;6.644;2022-12-07T16:16:45;13.67;;;8.37;;
65063;SDS011;51654;51.452;6.644;2022-12-07T16:19:16;15.57;;;4.70;;
65063;SDS011;51654;51.452;6.644;2022-12-07T17:19:05;14.63;;;5.83;;
65063;SDS011;51654;51.452;6.644;2022-12-07T17:21:33;7.77;;;4.00;;
65063;SDS011;51654;51.452;6.644;2022-12-07T17:54:12;4.53;;;3.30;;
65063;SDS011;51654;51.452;6.644;2022-12-07T17:56:39;12.00;;;3.00;;
65063;SDS011;51654;51.452;6.644;2022-12-07T17:59:06;7.60;;;3.63;;
65063;SDS011;51654;51.452;6.644;2022-12-07T18:01:34;13.47;;;4.10;;
65063;SDS011;51654;51.452;6.644;2022-12-07T18:04:02;10.00;;;5.30;;
65063;SDS011;51654;51.452;6.644;2022-12-07T18:06:29;26.87;;;10.50;;
65063;SDS011;51654;51.452;6.644;2022-12-07T18:08:57;34.70;;;13.40;;
65063;SDS011;51654;51.452;6.644;2022-12-07T18:11:24;39.50;;;13.00;;
65063;SDS011;51654;51.452;6.644;2022-12-07T18:13:51;17.00;;;6.53;;
65063;SDS011;51654;51.452;6.644;2022-12-07T18:16:23;4.53;;;4.10;;
65063;SDS011;51654;51.452;6.644;2022-12-07T18:18:52;8.60;;;4.82;;
65063;SDS011;51654;51.452;6.644;2022-12-07T18:21:20;6.77;;;5.10;;
65063;SDS011;51654;51.452;6.644;2022-12-07T18:23:50;8.23;;;4.10;;
65063;SDS011;51654;51.452;6.644;2022-12-07T18:26:19;13.45;;;5.80;;
65063;SDS011;51654;51.452;6.644;2022-12-07T18:28:46;10.97;;;4.57;;
65063;SDS011;51654;51.452;6.644;2022-12-07T18:31:14;15.27;;;8.07;;
65063;SDS011;51654;51.452;6.644;2022-12-07T18:33:42;7.20;;;5.03;;
65063;SDS011;51654;51.452;6.644;2022-12-07T18:36:10;7.27;;;5.40;;
65063;SDS011;51654;51.452;6.644;2022-12-07T18:38:38;4.83;;;4.40;;
65063;SDS011;51654;51.452;6.644;2022-12-07T18:41:09;7.03;;;4.20;;
65063;SDS011;51654;51.452;6.644;2022-12-07T18:43:38;8.50;;;4.50;;
65063;SDS011;51654;51.452;6.644;2022-12-07T18:46:08;10.93;;;5.57;;
65063;SDS011;51654;51.452;6.644;2022-12-07T18:48:37;9.87;;;4.67;;
65063;SDS011;51654;51.452;6.644;2022-12-07T18:51:04;9.50;;;5.03;;
65063;SDS011;51654;51.452;6.644;2022-12-07T18:53:32;5.37;;;4.20;;
65063;SDS011;51654;51.452;6.644;2022-12-07T18:56:01;12.30;;;5.20;;
65063;SDS011;51654;51.452;6.644;2022-12-07T18:58:28;8.40;;;4.57;;
65063;SDS011;51654;51.452;6.644;2022-12-07T19:00:55;4.33;;;4.03;;
65063;SDS011;51654;51.452;6.644;2022-12-07T19:03:22;6.77;;;5.00;;
65063;SDS011;51654;51.452;6.644;2022-12-07T19:05:56;9.03;;;4.67;;
